sensor_id;sensor_type;location;lat;lon;timestamp;pressure;altitude;pressure_sealevel;temperature;humidity
60589;BME280;46421;48.610;9.334;2023-02-01T00:01:32;98738.44;;;3.03;92.90
60589;BME280;46421;48.610;9.334;2023-02-01T00:03:57;98743.47;;;3.06;93.74
60589;BME280;46421;48.610;9.334;2023-02-01T00:06:23;98735.31;;;2.97;95.23
60589;BME280;46421;48.610;9.334;2023-02-01T00:08:48;98743.50;;;2.93;95.79
60589;BME280;46421;48.610;9.334;2023-02-01T00:11:13;98736.47;;;2.93;96.64
60589;BME280;46421;48.610;9.334;2023-02-01T00:13:41;98740.22;;;2.78;98.38
60589;BME280;46421;48.610;9.334;2023-02-01T00:16:10;98734.66;;;2.69;99.22
60589;BME280;46421;48.610;9.334;2023-02-01T00:18:37;98734.44;;;2.73;98.68
60589;BME280;46421;48.610;9.334;2023-02-01T00:21:03;98741.38;;;2.74;98.79
60589;BME280;46421;48.610;9.334;2023-02-01T00:23:32;98726.78;;;2.69;98.87
60589;BME280;46421;48.610;9.334;2023-02-01T00:26:00;98718.78;;;2.71;98.84
60589;BME280;46421;48.610;9.334;2023-02-01T00:28:26;98690.69;;;2.60;98.96
60589;BME280;46421;48.610;9.334;2023-02-01T00:30:59;98698.25;;;2.65;98.90
60589;BME280;46421;48.610;9.334;2023-02-01T00:33:25;98702.88;;;2.61;99.17
60589;BME280;46421;48.610;9.334;2023-02-01T00:35:50;98698.75;;;2.70;99.22
60589;BME280;46421;48.610;9.334;2023-02-01T00:38:16;98701.16;;;2.73;98.93
60589;BME280;46421;48.610;9.334;2023-02-01T00:40:41;98701.28;;;2.72;98.01
60589;BME280;46421;48.610;9.334;2023-02-01T00:43:06;98705.56;;;2.73;98.08
60589;BME280;46421;48.610;9.334;2023-02-01T00:45:32;98709.66;;;2.77;98.23
60589;BME280;46421;48.610;9.334;2023-02-01T00:47:57;98705.22;;;2.77;97.99
60589;BME280;46421;48.610;9.334;2023-02-01T00:50:22;98696.81;;;2.85;97.72
60589;BME280;46421;48.610;9.334;2023-02-01T00:52:48;98694.91;;;2.87;96.96
60589;BME280;46421;48.610;9.334;2023-02-01T00:55:13;98692.91;;;2.91;97.31
60589;BME280;46421;48.610;9.334;2023-02-01T00:57:38;98700.44;;;2.95;96.84
60589;BME280;46421;48.610;9.334;2023-02-01T01:00:04;98692.03;;;2.90;97.75
60589;BME280;46421;48.610;9.334;2023-02-01T01:02:30;98683.34;;;2.90;98.25
60589;BME280;46421;48.610;9.334;2023-02-01T01:04:55;98682.16;;;2.94;97.27
60589;BME280;46421;48.610;9.334;2023-02-01T01:07:20;98679.66;;;2.92;97.45
60589;BME280;46421;48.610;9.334;2023-02-01T01:09:46;98682.16;;;2.94;97.42
60589;BME280;46421;48.610;9.334;2023-02-01T01:12:11;98668.94;;;2.95;97.11
60589;BME280;46421;48.610;9.334;2023-02-01T01:14:36;98671.56;;;2.95;96.77
60589;BME280;46421;48.610;9.334;2023-02-01T01:17:02;98669.63;;;2.97;96.86
60589;BME280;46421;48.610;9.334;2023-02-01T01:19:27;98670.53;;;2.85;97.69
60589;BME280;46421;48.610;9.334;2023-02-01T01:21:53;98666.78;;;3.00;97.34
60589;BME280;46421;48.610;9.334;2023-02-01T01:24:18;98652.78;;;2.89;97.88
60589;BME280;46421;48.610;9.334;2023-02-01T01:26:43;98665.72;;;3.03;97.38
60589;BME280;46421;48.610;9.334;2023-02-01T01:29:09;98656.03;;;3.04;96.88
60589;BME280;46421;48.610;9.334;2023-02-01T01:31:35;98654.81;;;2.96;97.59
60589;BME280;46421;48.610;9.334;2023-02-01T01:34:00;98653.41;;;3.04;97.33
60589;BME280;46421;48.610;9.334;2023-02-01T01:36:27;98664.19;;;3.12;96.92
60589;BME280;46421;48.610;9.334;2023-02-01T01:38:53;98659.19;;;3.09;96.88
60589;BME280;46421;48.610;9.334;2023-02-01T01:41:23;98660.47;;;3.03;97.28
60589;BME280;46421;48.610;9.334;2023-02-01T01:44:04;98662.16;;;3.04;96.71
60589;BME280;46421;48.610;9.334;2023-02-01T01:46:36;98653.47;;;3.15;96.45
60589;BME280;46421;48.610;9.334;2023-02-01T01:49:10;98655.00;;;3.06;97.30
60589;BME280;46421;48.610;9.334;2023-02-01T01:51:41;98661.13;;;3.18;96.26
60589;BME280;46421;48.610;9.334;2023-02-01T01:54:17;98660.06;;;3.21;95.83
60589;BME280;46421;48.610;9.334;2023-02-01T01:56:46;98665.41;;;3.19;95.85
60589;BME280;46421;48.610;9.334;2023-02-01T01:59:14;98654.81;;;3.21;95.25
60589;BME280;46421;48.610;9.334;2023-02-01T02:01:39;98640.00;;;3.20;95.46
60589;BME280;46421;48.610;9.334;2023-02-01T02:04:05;98643.50;;;3.31;95.00
60589;BME280;46421;48.610;9.334;2023-02-01T02:06:48;98645.13;;;3.21;95.44
60589;BME280;46421;48.610;9.334;2023-02-01T02:09:14;98637.50;;;3.29;95.04
60589;BME280;46421;48.610;9.334;2023-02-01T02:11:40;98638.44;;;3.28;94.90
60589;BME280;46421;48.610;9.334;2023-02-01T02:14:08;98635.25;;;3.36;94.46
60589;BME280;46421;48.610;9.334;2023-02-01T02:17:19;98627.72;;;3.31;94.02
60589;BME280;46421;48.610;9.334;2023-02-01T02:31:08;98639.09;;;3.43;93.50
60589;BME280;46421;48.610;9.334;2023-02-01T02:36:29;98622.84;;;3.38;94.01
60589;BME280;46421;48.610;9.334;2023-02-01T02:42:25;98633.84;;;3.43;94.10
60589;BME280;46421;48.610;9.334;2023-02-01T02:45:27;98630.63;;;3.51;93.52
60589;BME280;46421;48.610;9.334;2023-02-01T02:48:25;98626.09;;;3.53;93.35
60589;BME280;46421;48.610;9.334;2023-02-01T02:51:05;98618.66;;;3.47;93.53
60589;BME280;46421;48.610;9.334;2023-02-01T02:54:18;98627.03;;;3.52;93.53
60589;BME280;46421;48.610;9.334;2023-02-01T02:57:07;98618.06;;;3.55;93.96
60589;BME280;46421;48.610;9.334;2023-02-01T02:59:52;98621.91;;;3.51;95.87
60589;BME280;46421;48.610;9.334;2023-02-01T03:02:39;98618.06;;;3.43;97.22
60589;BME280;46421;48.610;9.334;2023-02-01T03:05:23;98622.94;;;3.37;98.70
60589;BME280;46421;48.610;9.334;2023-02-01T03:08:14;98628.06;;;3.27;99.48
60589;BME280;46421;48.610;9.334;2023-02-01T03:11:01;98627.72;;;3.31;100.00
60589;BME280;46421;48.610;9.334;2023-02-01T03:13:54;98624.50;;;3.28;100.00
60589;BME280;46421;48.610;9.334;2023-02-01T03:16:28;98622.53;;;3.19;100.00
60589;BME280;46421;48.610;9.334;2023-02-01T03:19:16;98632.31;;;3.16;100.00
60589;BME280;46421;48.610;9.334;2023-02-01T03:24:12;98630.78;;;3.14;100.00
60589;BME280;46421;48.610;9.334;2023-02-01T03:26:45;98633.13;;;3.06;100.00
60589;BME280;46421;48.610;9.334;2023-02-01T03:29:17;98632.66;;;3.12;100.00
60589;BME280;46421;48.610;9.334;2023-02-01T03:31:44;98621.13;;;3.14;100.00
60589;BME280;46421;48.610;9.334;2023-02-01T03:34:11;98606.50;;;2.99;100.00
60589;BME280;46421;48.610;9.334;2023-02-01T03:36:42;98594.19;;;2.99;100.00
60589;BME280;46421;48.610;9.334;2023-02-01T03:39:45;98605.44;;;3.13;100.00
60589;BME280;46421;48.610;9.334;2023-02-01T03:42:14;98591.72;;;3.09;100.00
60589;BME280;46421;48.610;9.334;2023-02-01T03:44:48;98590.41;;;3.15;100.00
60589;BME280;46421;48.610;9.334;2023-02-01T03:47:23;98597.69;;;3.23;100.00
60589;BME280;46421;48.610;9.334;2023-02-01T03:49:57;98602.13;;;3.22;100.00
60589;BME280;46421;48.610;9.334;2023-02-01T03:52:32;98617.56;;;3.27;100.00
60589;BME280;46421;48.610;9.334;2023-02-01T03:55:00;98609.66;;;3.27;100.00
60589;BME280;46421;48.610;9.334;2023-02-01T03:57:30;98606.44;;;3.23;100.00
60589;BME280;46421;48.610;9.334;2023-02-01T04:00:07;98590.94;;;3.31;100.00
60589;BME280;46421;48.610;9.334;2023-02-01T04:02:34;98588.19;;;3.33;100.00
60589;BME280;46421;48.610;9.334;2023-02-01T04:04:59;98581.84;;;3.36;99.38
60589;BME280;46421;48.610;9.334;2023-02-01T04:07:24;98575.03;;;3.33;98.75
60589;BME280;46421;48.610;9.334;2023-02-01T04:09:50;98571.31;;;3.36;98.74
60589;BME280;46421;48.610;9.334;2023-02-01T04:12:15;98584.84;;;3.42;98.18
60589;BME280;46421;48.610;9.334;2023-02-01T04:14:40;98580.78;;;3.38;98.23
60589;BME280;46421;48.610;9.334;2023-02-01T04:17:06;98599.66;;;3.43;97.83
60589;BME280;46421;48.610;9.334;2023-02-01T04:19:31;98584.63;;;3.45;96.77
60589;BME280;46421;48.610;9.334;2023-02-01T04:21:56;98581.50;;;3.40;96.66
60589;BME280;46421;48.610;9.334;2023-02-01T04:24:22;98579.25;;;3.47;96.07
60589;BME280;46421;48.610;9.334;2023-02-01T04:26:47;98574.94;;;3.46;96.54
60589;BME280;46421;48.610;9.334;2023-02-01T04:29:12;98569.81;;;3.44;96.14
60589;BME280;46421;48.610;9.334;2023-02-01T04:31:38;98572.31;;;3.46;96.04
60589;BME280;46421;48.610;9.334;2023-02-01T04:34:03;98577.22;;;3.51;95.24
60589;BME280;46421;48.610;9.334;2023-02-01T04:36:28;98585.47;;;3.57;95.57
60589;BME280;46421;48.610;9.334;2023-02-01T04:38:54;98589.06;;;3.56;95.00
60589;BME280;46421;48.610;9.334;2023-02-01T04:41:19;98596.69;;;3.48;95.70
60589;BME280;46421;48.610;9.334;2023-02-01T04:43:46;98596.09;;;3.56;95.69
60589;BME280;46421;48.610;9.334;2023-02-01T04:46:11;98593.38;;;3.57;94.59
60589;BME280;46421;48.610;9.334;2023-02-01T04:48:37;98613.31;;;3.60;94.32
60589;BME280;46421;48.610;9.334;2023-02-01T04:51:02;98601.00;;;3.49;94.99
60589;BME280;46421;48.610;9.334;2023-02-01T04:53:27;98602.06;;;3.58;95.51
60589;BME280;46421;48.610;9.334;2023-02-01T04:55:55;98593.22;;;3.59;94.32
60589;BME280;46421;48.610;9.334;2023-02-01T04:58:20;98580.56;;;3.53;94.88
60589;BME280;46421;48.610;9.334;2023-02-01T05:00:45;98584.97;;;3.52;94.66
60589;BME280;46421;48.610;9.334;2023-02-01T05:03:11;98591.78;;;3.55;94.03
60589;BME280;46421;48.610;9.334;2023-02-01T05:05:36;98585.69;;;3.54;94.11
60589;BME280;46421;48.610;9.334;2023-02-01T05:08:02;98585.09;;;3.51;94.68
60589;BME280;46421;48.610;9.334;2023-02-01T05:10:27;98584.75;;;3.55;93.85
60589;BME280;46421;48.610;9.334;2023-02-01T05:12:52;98573.72;;;3.50;93.87
60589;BME280;46421;48.610;9.334;2023-02-01T05:15:36;98587.38;;;3.55;93.89
60589;BME280;46421;48.610;9.334;2023-02-01T05:18:02;98586.78;;;3.52;93.75
60589;BME280;46421;48.610;9.334;2023-02-01T05:20:28;98573.50;;;3.53;93.78
60589;BME280;46421;48.610;9.334;2023-02-01T05:22:53;98569.47;;;3.49;94.04
60589;BME280;46421;48.610;9.334;2023-02-01T05:25:18;98566.81;;;3.49;93.83
60589;BME280;46421;48.610;9.334;2023-02-01T05:27:44;98568.13;;;3.55;93.14
60589;BME280;46421;48.610;9.334;2023-02-01T05:30:10;98562.25;;;3.51;93.41
60589;BME280;46421;48.610;9.334;2023-02-01T05:32:35;98577.34;;;3.49;93.39
60589;BME280;46421;48.610;9.334;2023-02-01T05:35:01;98570.75;;;3.55;92.47
60589;BME280;46421;48.610;9.334;2023-02-01T05:37:27;98585.56;;;3.56;93.11
60589;BME280;46421;48.610;9.334;2023-02-01T05:39:52;98586.91;;;3.61;92.61
60589;BME280;46421;48.610;9.334;2023-02-01T05:42:18;98592.38;;;3.58;92.24
60589;BME280;46421;48.610;9.334;2023-02-01T05:44:43;98593.97;;;3.61;92.89
60589;BME280;46421;48.610;9.334;2023-02-01T05:47:09;98599.31;;;3.59;93.08
60589;BME280;46421;48.610;9.334;2023-02-01T05:49:35;98595.25;;;3.55;93.12
60589;BME280;46421;48.610;9.334;2023-02-01T05:52:00;98595.50;;;3.63;92.23
60589;BME280;46421;48.610;9.334;2023-02-01T05:54:26;98592.97;;;3.62;91.98
60589;BME280;46421;48.610;9.334;2023-02-01T05:56:51;98600.50;;;3.67;92.02
60589;BME280;46421;48.610;9.334;2023-02-01T05:59:17;98602.09;;;3.69;91.98
60589;BME280;46421;48.610;9.334;2023-02-01T06:01:42;98607.72;;;3.64;92.36
60589;BME280;46421;48.610;9.334;2023-02-01T06:04:07;98606.28;;;3.72;90.94
60589;BME280;46421;48.610;9.334;2023-02-01T06:06:33;98610.44;;;3.63;92.86
60589;BME280;46421;48.610;9.334;2023-02-01T06:08:59;98614.63;;;3.54;95.57
60589;BME280;46421;48.610;9.334;2023-02-01T06:11:25;98605.53;;;3.47;97.32
60589;BME280;46421;48.610;9.334;2023-02-01T06:13:51;98608.50;;;3.42;98.30
60589;BME280;46421;48.610;9.334;2023-02-01T06:16:16;98609.47;;;3.41;98.46
60589;BME280;46421;48.610;9.334;2023-02-01T06:18:41;98605.88;;;3.42;97.45
60589;BME280;46421;48.610;9.334;2023-02-01T06:21:07;98620.31;;;3.37;97.63
60589;BME280;46421;48.610;9.334;2023-02-01T06:23:33;98632.50;;;3.38;97.47
60589;BME280;46421;48.610;9.334;2023-02-01T06:26:00;98625.34;;;3.40;100.00
60589;BME280;46421;48.610;9.334;2023-02-01T06:28:27;98610.50;;;3.27;100.00
60589;BME280;46421;48.610;9.334;2023-02-01T06:30:53;98593.78;;;3.17;100.00
60589;BME280;46421;48.610;9.334;2023-02-01T06:33:18;98589.81;;;3.11;100.00
60589;BME280;46421;48.610;9.334;2023-02-01T06:35:44;98583.94;;;3.08;100.00
60589;BME280;46421;48.610;9.334;2023-02-01T06:38:11;98594.69;;;3.05;100.00
60589;BME280;46421;48.610;9.334;2023-02-01T06:40:37;98586.56;;;3.08;100.00
60589;BME280;46421;48.610;9.334;2023-02-01T06:43:02;98569.25;;;3.05;100.00
60589;BME280;46421;48.610;9.334;2023-02-01T06:45:28;98563.75;;;3.08;100.00
60589;BME280;46421;48.610;9.334;2023-02-01T06:47:53;98567.72;;;3.14;100.00
60589;BME280;46421;48.610;9.334;2023-02-01T06:50:18;98550.16;;;3.03;100.00
60589;BME280;46421;48.610;9.334;2023-02-01T06:52:44;98568.09;;;3.21;100.00
60589;BME280;46421;48.610;9.334;2023-02-01T06:55:09;98585.06;;;3.28;99.42
60589;BME280;46421;48.610;9.334;2023-02-01T06:57:34;98581.84;;;3.24;98.82
60589;BME280;46421;48.610;9.334;2023-02-01T07:00:02;98585.81;;;3.30;99.17
60589;BME280;46421;48.610;9.334;2023-02-01T07:02:28;98588.88;;;3.24;99.40
60589;BME280;46421;48.610;9.334;2023-02-01T07:04:53;98592.44;;;3.23;99.71
60589;BME280;46421;48.610;9.334;2023-02-01T07:07:19;98596.19;;;3.31;100.00
60589;BME280;46421;48.610;9.334;2023-02-01T07:09:45;98602.25;;;3.32;99.18
60589;BME280;46421;48.610;9.334;2023-02-01T07:12:10;98596.19;;;3.31;98.66
60589;BME280;46421;48.610;9.334;2023-02-01T07:14:35;98606.44;;;3.35;98.95
60589;BME280;46421;48.610;9.334;2023-02-01T07:17:01;98627.03;;;3.41;97.68
60589;BME280;46421;48.610;9.334;2023-02-01T07:19:26;98641.13;;;3.40;97.70
60589;BME280;46421;48.610;9.334;2023-02-01T07:21:52;98630.00;;;3.36;98.04
60589;BME280;46421;48.610;9.334;2023-02-01T07:24:17;98632.88;;;3.44;97.86
60589;BME280;46421;48.610;9.334;2023-02-01T07:26:42;98629.75;;;3.39;98.26
60589;BME280;46421;48.610;9.334;2023-02-01T07:29:08;98634.56;;;3.45;98.09
60589;BME280;46421;48.610;9.334;2023-02-01T07:31:33;98634.91;;;3.52;97.65
60589;BME280;46421;48.610;9.334;2023-02-01T07:33:58;98638.50;;;3.51;97.50
60589;BME280;46421;48.610;9.334;2023-02-01T07:36:24;98643.41;;;3.56;97.18
60589;BME280;46421;48.610;9.334;2023-02-01T07:38:50;98641.13;;;3.51;96.80
60589;BME280;46421;48.610;9.334;2023-02-01T07:41:17;98652.16;;;3.56;96.86
60589;BME280;46421;48.610;9.334;2023-02-01T07:43:43;98654.78;;;3.56;96.47
60589;BME280;46421;48.610;9.334;2023-02-01T07:46:10;98657.41;;;3.56;96.50
60589;BME280;46421;48.610;9.334;2023-02-01T07:48:36;98651.06;;;3.59;96.57
60589;BME280;46421;48.610;9.334;2023-02-01T07:51:04;98657.16;;;3.59;96.59
60589;BME280;46421;48.610;9.334;2023-02-01T07:53:32;98650.22;;;3.58;95.65
60589;BME280;46421;48.610;9.334;2023-02-01T07:55:57;98651.19;;;3.69;95.32
60589;BME280;46421;48.610;9.334;2023-02-01T07:58:23;98655.50;;;3.70;94.41
60589;BME280;46421;48.610;9.334;2023-02-01T08:00:49;98656.09;;;3.73;94.36
60589;BME280;46421;48.610;9.334;2023-02-01T08:03:33;98661.84;;;3.78;93.81
60589;BME280;46421;48.610;9.334;2023-02-01T08:05:58;98658.50;;;3.76;94.43
60589;BME280;46421;48.610;9.334;2023-02-01T08:08:24;98652.88;;;3.81;93.78
60589;BME280;46421;48.610;9.334;2023-02-01T08:10:49;98651.69;;;3.85;93.00
60589;BME280;46421;48.610;9.334;2023-02-01T08:13:15;98651.94;;;3.82;93.24
60589;BME280;46421;48.610;9.334;2023-02-01T08:15:40;98652.53;;;3.86;93.24
60589;BME280;46421;48.610;9.334;2023-02-01T08:18:05;98650.63;;;3.88;93.21
60589;BME280;46421;48.610;9.334;2023-02-01T08:20:31;98658.28;;;3.91;92.43
60589;BME280;46421;48.610;9.334;2023-02-01T08:22:56;98659.59;;;3.85;92.98
60589;BME280;46421;48.610;9.334;2023-02-01T08:25:23;98653.50;;;3.85;91.62
60589;BME280;46421;48.610;9.334;2023-02-01T08:27:49;98643.09;;;3.83;91.86
60589;BME280;46421;48.610;9.334;2023-02-01T08:30:15;98646.44;;;3.85;91.73
60589;BME280;46421;48.610;9.334;2023-02-01T08:32:40;98639.16;;;3.89;91.30
60589;BME280;46421;48.610;9.334;2023-02-01T08:35:06;98627.31;;;3.83;91.00
60589;BME280;46421;48.610;9.334;2023-02-01T08:37:32;98638.78;;;3.93;91.15
60589;BME280;46421;48.610;9.334;2023-02-01T08:39:57;98653.50;;;3.96;90.07
60589;BME280;46421;48.610;9.334;2023-02-01T08:42:22;98648.13;;;4.09;89.04
60589;BME280;46421;48.610;9.334;2023-02-01T08:45:07;98642.38;;;4.26;88.52
60589;BME280;46421;48.610;9.334;2023-02-01T08:47:34;98649.16;;;4.40;87.72
60589;BME280;46421;48.610;9.334;2023-02-01T08:49:59;98650.66;;;4.66;85.18
60589;BME280;46421;48.610;9.334;2023-02-01T08:52:25;98659.47;;;4.87;84.90
60589;BME280;46421;48.610;9.334;2023-02-01T08:54:50;98663.63;;;5.22;82.50
60589;BME280;46421;48.610;9.334;2023-02-01T08:57:16;98654.31;;;5.92;78.15
60589;BME280;46421;48.610;9.334;2023-02-01T08:59:41;98653.47;;;5.39;80.40
60589;BME280;46421;48.610;9.334;2023-02-01T09:02:12;98661.34;;;4.97;82.10
60589;BME280;46421;48.610;9.334;2023-02-01T09:04:38;98660.94;;;4.80;84.20
60589;BME280;46421;48.610;9.334;2023-02-01T09:07:03;98668.03;;;4.68;84.76
60589;BME280;46421;48.610;9.334;2023-02-01T09:09:28;98655.94;;;4.66;84.79
60589;BME280;46421;48.610;9.334;2023-02-01T09:11:54;98655.50;;;4.49;84.59
60589;BME280;46421;48.610;9.334;2023-02-01T09:14:19;98658.72;;;4.41;85.08
60589;BME280;46421;48.610;9.334;2023-02-01T09:16:44;98658.97;;;4.38;86.14
60589;BME280;46421;48.610;9.334;2023-02-01T09:19:10;98650.22;;;4.38;85.88
60589;BME280;46421;48.610;9.334;2023-02-01T09:21:36;98659.81;;;4.39;85.68
60589;BME280;46421;48.610;9.334;2023-02-01T09:24:01;98668.44;;;4.41;85.57
60589;BME280;46421;48.610;9.334;2023-02-01T09:26:27;98660.66;;;4.28;86.42
60589;BME280;46421;48.610;9.334;2023-02-01T09:28:52;98673.22;;;4.24;85.86
60589;BME280;46421;48.610;9.334;2023-02-01T09:31:18;98678.50;;;4.24;86.46
60589;BME280;46421;48.610;9.334;2023-02-01T09:33:44;98683.53;;;4.27;86.14
60589;BME280;46421;48.610;9.334;2023-02-01T09:36:09;98670.34;;;4.16;86.25
60589;BME280;46421;48.610;9.334;2023-02-01T09:38:35;98682.66;;;4.27;85.83
60589;BME280;46421;48.610;9.334;2023-02-01T09:41:00;98689.72;;;4.38;85.92
60589;BME280;46421;48.610;9.334;2023-02-01T09:46:30;98696.66;;;4.39;85.31
60589;BME280;46421;48.610;9.334;2023-02-01T09:49:00;98689.50;;;4.41;84.56
60589;BME280;46421;48.610;9.334;2023-02-01T09:51:35;98681.34;;;4.44;84.34
60589;BME280;46421;48.610;9.334;2023-02-01T09:54:07;98696.53;;;4.40;84.39
60589;BME280;46421;48.610;9.334;2023-02-01T09:56:46;98700.63;;;4.45;84.05
60589;BME280;46421;48.610;9.334;2023-02-01T10:01:47;98692.00;;;4.42;84.16
60589;BME280;46421;48.610;9.334;2023-02-01T10:04:14;98700.47;;;4.57;82.90
60589;BME280;46421;48.610;9.334;2023-02-01T10:06:56;98700.47;;;4.57;82.50
60589;BME280;46421;48.610;9.334;2023-02-01T10:12:52;98679.47;;;4.79;82.02
60589;BME280;46421;48.610;9.334;2023-02-01T10:18:19;98696.72;;;4.71;81.17
60589;BME280;46421;48.610;9.334;2023-02-01T10:26:17;98704.31;;;4.65;80.89
60589;BME280;46421;48.610;9.334;2023-02-01T10:28:45;98699.13;;;4.63;80.76
60589;BME280;46421;48.610;9.334;2023-02-01T10:31:12;98705.00;;;4.67;81.17
60589;BME280;46421;48.610;9.334;2023-02-01T10:33:42;98720.06;;;4.76;80.36
60589;BME280;46421;48.610;9.334;2023-02-01T10:38:47;98731.81;;;4.72;79.61
60589;BME280;46421;48.610;9.334;2023-02-01T10:41:15;98724.25;;;4.79;79.73
60589;BME280;46421;48.610;9.334;2023-02-01T10:43:43;98725.59;;;4.73;79.07
60589;BME280;46421;48.610;9.334;2023-02-01T10:46:10;98716.50;;;4.66;79.34
60589;BME280;46421;48.610;9.334;2023-02-01T10:48:36;98720.78;;;4.67;79.60
60589;BME280;46421;48.610;9.334;2023-02-01T10:51:36;98718.38;;;4.86;78.67
60589;BME280;46421;48.610;9.334;2023-02-01T10:54:16;98726.28;;;4.86;78.40
60589;BME280;46421;48.610;9.334;2023-02-01T10:56:44;98727.09;;;4.87;78.55
60589;BME280;46421;48.610;9.334;2023-02-01T10:59:19;98710.69;;;4.95;78.39
60589;BME280;46421;48.610;9.334;2023-02-01T11:01:47;98700.06;;;4.85;77.94
60589;BME280;46421;48.610;9.334;2023-02-01T11:04:18;98708.22;;;4.82;77.85
60589;BME280;46421;48.610;9.334;2023-02-01T11:06:53;98701.97;;;4.83;78.20
60589;BME280;46421;48.610;9.334;2023-02-01T11:09:22;98695.03;;;4.82;78.51
60589;BME280;46421;48.610;9.334;2023-02-01T11:14:17;98696.00;;;4.81;77.65
60589;BME280;46421;48.610;9.334;2023-02-01T11:16:48;98691.94;;;4.77;78.36
60589;BME280;46421;48.610;9.334;2023-02-01T11:19:15;98699.22;;;4.84;77.63
60589;BME280;46421;48.610;9.334;2023-02-01T11:21:42;98693.13;;;4.84;77.43
60589;BME280;46421;48.610;9.334;2023-02-01T11:24:22;98693.84;;;4.86;76.84
60589;BME280;46421;48.610;9.334;2023-02-01T11:26:49;98686.53;;;4.89;76.38
60589;BME280;46421;48.610;9.334;2023-02-01T11:29:17;98681.72;;;4.95;75.69
60589;BME280;46421;48.610;9.334;2023-02-01T11:31:45;98684.78;;;5.11;75.23
60589;BME280;46421;48.610;9.334;2023-02-01T11:34:15;98681.91;;;5.35;74.29
60589;BME280;46421;48.610;9.334;2023-02-01T11:36:41;98679.44;;;5.22;74.04
60589;BME280;46421;48.610;9.334;2023-02-01T11:41:44;98684.44;;;5.04;74.08
60589;BME280;46421;48.610;9.334;2023-02-01T11:44:20;98663.78;;;5.10;73.93
60589;BME280;46421;48.610;9.334;2023-02-01T11:46:46;98665.94;;;5.16;74.58
60589;BME280;46421;48.610;9.334;2023-02-01T11:49:26;98659.19;;;5.23;73.71
60589;BME280;46421;48.610;9.334;2023-02-01T11:52:34;98642.16;;;5.27;73.05
60589;BME280;46421;48.610;9.334;2023-02-01T11:57:43;98640.72;;;5.65;71.47
60589;BME280;46421;48.610;9.334;2023-02-01T12:00:35;98651.78;;;5.38;71.61
60589;BME280;46421;48.610;9.334;2023-02-01T12:03:20;98638.00;;;5.46;72.00
60589;BME280;46421;48.610;9.334;2023-02-01T12:05:58;98625.66;;;5.56;70.71
60589;BME280;46421;48.610;9.334;2023-02-01T12:08:57;98627.34;;;5.57;71.14
60589;BME280;46421;48.610;9.334;2023-02-01T12:11:35;98612.19;;;5.49;70.74
60589;BME280;46421;48.610;9.334;2023-02-01T12:30:44;98613.91;;;5.18;72.74
60589;BME280;46421;48.610;9.334;2023-02-01T12:36:12;98587.75;;;4.84;73.42
60589;BME280;46421;48.610;9.334;2023-02-01T12:38:49;98622.72;;;5.07;72.44
60589;BME280;46421;48.610;9.334;2023-02-01T12:41:43;98626.31;;;5.06;72.31
60589;BME280;46421;48.610;9.334;2023-02-01T12:44:32;98622.72;;;5.07;72.50
60589;BME280;46421;48.610;9.334;2023-02-01T12:47:29;98617.22;;;5.10;71.91
60589;BME280;46421;48.610;9.334;2023-02-01T12:50:00;98616.13;;;5.13;71.95
60589;BME280;46421;48.610;9.334;2023-02-01T12:52:32;98622.34;;;5.12;71.69
60589;BME280;46421;48.610;9.334;2023-02-01T12:57:41;98632.22;;;4.98;72.33
60589;BME280;46421;48.610;9.334;2023-02-01T13:03:19;98609.84;;;4.93;72.22
60589;BME280;46421;48.610;9.334;2023-02-01T13:06:06;98613.66;;;5.00;72.17
60589;BME280;46421;48.610;9.334;2023-02-01T13:08:45;98613.91;;;4.97;71.97
60589;BME280;46421;48.610;9.334;2023-02-01T13:11:18;98622.88;;;4.94;71.28
60589;BME280;46421;48.610;9.334;2023-02-01T13:14:15;98617.38;;;4.97;72.92
60589;BME280;46421;48.610;9.334;2023-02-01T13:16:45;98626.81;;;5.00;71.56
60589;BME280;46421;48.610;9.334;2023-02-01T13:19:22;98616.94;;;4.92;71.43
60589;BME280;46421;48.610;9.334;2023-02-01T13:21:56;98610.72;;;4.93;72.32
60589;BME280;46421;48.610;9.334;2023-02-01T13:24:48;98619.56;;;4.92;72.39
60589;BME280;46421;48.610;9.334;2023-02-01T13:27:16;98613.97;;;4.85;72.28
60589;BME280;46421;48.610;9.334;2023-02-01T13:29:48;98619.38;;;4.84;72.11
60589;BME280;46421;48.610;9.334;2023-02-01T13:32:26;98616.84;;;4.82;71.61
60589;BME280;46421;48.610;9.334;2023-02-01T13:35:07;98611.56;;;4.82;72.50
60589;BME280;46421;48.610;9.334;2023-02-01T13:38:07;98610.16;;;4.78;73.29
60589;BME280;46421;48.610;9.334;2023-02-01T13:40:47;98593.91;;;4.73;73.81
60589;BME280;46421;48.610;9.334;2023-02-01T13:43:24;98601.16;;;4.81;73.90
60589;BME280;46421;48.610;9.334;2023-02-01T13:46:06;98606.19;;;4.84;73.81
60589;BME280;46421;48.610;9.334;2023-02-01T13:48:51;98612.63;;;4.91;73.76
60589;BME280;46421;48.610;9.334;2023-02-01T13:51:42;98607.88;;;4.85;72.79
60589;BME280;46421;48.610;9.334;2023-02-01T13:54:25;98595.50;;;4.85;73.60
60589;BME280;46421;48.610;9.334;2023-02-01T13:56:50;98597.91;;;4.88;75.13
60589;BME280;46421;48.610;9.334;2023-02-01T14:05:09;98592.84;;;4.64;76.08
60589;BME280;46421;48.610;9.334;2023-02-01T14:07:35;98587.94;;;4.59;76.65
60589;BME280;46421;48.610;9.334;2023-02-01T14:13:22;98577.31;;;4.82;76.09
60589;BME280;46421;48.610;9.334;2023-02-01T14:23:41;98577.13;;;4.95;74.38
60589;BME280;46421;48.610;9.334;2023-02-01T14:26:11;98581.31;;;4.98;74.83
60589;BME280;46421;48.610;9.334;2023-02-01T14:28:56;98573.25;;;4.89;74.92
60589;BME280;46421;48.610;9.334;2023-02-01T14:31:32;98568.94;;;4.88;74.33
60589;BME280;46421;48.610;9.334;2023-02-01T14:34:00;98574.78;;;4.92;75.13
60589;BME280;46421;48.610;9.334;2023-02-01T14:36:39;98578.00;;;4.96;74.47
60589;BME280;46421;48.610;9.334;2023-02-01T14:39:19;98566.97;;;4.90;73.88
60589;BME280;46421;48.610;9.334;2023-02-01T14:41:46;98573.72;;;4.83;75.50
60589;BME280;46421;48.610;9.334;2023-02-01T14:44:14;98584.25;;;4.83;75.29
60589;BME280;46421;48.610;9.334;2023-02-01T14:47:09;98584.84;;;4.66;75.23
60589;BME280;46421;48.610;9.334;2023-02-01T14:49:39;98593.19;;;4.71;75.48
60589;BME280;46421;48.610;9.334;2023-02-01T14:52:11;98581.94;;;4.69;75.39
60589;BME280;46421;48.610;9.334;2023-02-01T14:54:39;98590.78;;;4.68;76.49
60589;BME280;46421;48.610;9.334;2023-02-01T14:57:12;98591.75;;;4.67;76.38